Delta Virtual Airport Information Service

Manila Ninoy Aquino International Airport

ICAO: RPLL Country: Philippines
Latitude: 14.5086 Longitude: 121.02
Latest Arrival : UAE336 (OMDB-RPLL) Latest Departure : UAE337 (RPLL-OMDB)


WX CaptureLIVE
Data provided by noaa.gov | Fetched at 05:24:33

METAR : RPLL 301000Z 26007KT 9999 FEW023CB FEW025 SCT020 30/26 Q1005 TEMPO 9000 -TSRA RMK A2968 CB NE-E

TAF : RPLL 300500Z 3006/0112 25006KT 9999 FEW025 SCT100 TX33/3006Z TN26/3021Z TEMPO 3006/3012 27012KT 9000 -TSRA FEW022CB SCT023 BKN090 TEMPO 3012/3018 22004KT -TSRA FEW022CB SCT023 BKN090


Runway Data for RPLL
Data provided by openaviationdata.com

Runway ID Mag Var Hdg Length Elevation Surface ILS Freq ILS Id ILS Slope
6 -1 61° 11196 ft 22 ft Concrete 109.1 IML 3
13 -1 135° 6568 ft 22 ft Concrete -- -- --
24 -1 241° 11196 ft 22 ft Concrete 109.9 IMA 3
31 -1 315° 6568 ft 22 ft Concrete -- -- --

Manila Ninoy Aquino International Airport, Philippines
Use only for reference purposes



Not for navigational purposes.